sensor_id;sensor_type;location;lat;lon;timestamp;P1;durP1;ratioP1;P2;durP2;ratioP2
23745;SDS011;12053;48.878;9.632;2022-11-20T00:00:57;21.05;;;16.02;;
23745;SDS011;12053;48.878;9.632;2022-11-20T00:03:24;22.63;;;16.10;;
23745;SDS011;12053;48.878;9.632;2022-11-20T00:05:51;20.48;;;15.70;;
23745;SDS011;12053;48.878;9.632;2022-11-20T00:08:18;24.13;;;16.08;;
23745;SDS011;12053;48.878;9.632;2022-11-20T00:10:45;21.30;;;15.27;;
23745;SDS011;12053;48.878;9.632;2022-11-20T00:13:12;23.25;;;14.88;;
23745;SDS011;12053;48.878;9.632;2022-11-20T00:15:40;32.00;;;18.27;;
23745;SDS011;12053;48.878;9.632;2022-11-20T00:18:07;23.88;;;15.75;;
23745;SDS011;12053;48.878;9.632;2022-11-20T00:20:34;23.35;;;15.50;;
23745;SDS011;12053;48.878;9.632;2022-11-20T00:23:01;19.80;;;14.02;;
23745;SDS011;12053;48.878;9.632;2022-11-20T00:25:28;21.70;;;13.98;;
23745;SDS011;12053;48.878;9.632;2022-11-20T00:27:55;20.45;;;14.38;;
23745;SDS011;12053;48.878;9.632;2022-11-20T00:30:23;18.40;;;13.52;;
23745;SDS011;12053;48.878;9.632;2022-11-20T00:32:50;22.92;;;13.70;;
23745;SDS011;12053;48.878;9.632;2022-11-20T00:35:17;19.20;;;13.00;;
23745;SDS011;12053;48.878;9.632;2022-11-20T00:37:44;17.27;;;12.00;;
23745;SDS011;12053;48.878;9.632;2022-11-20T00:40:11;21.02;;;12.88;;
23745;SDS011;12053;48.878;9.632;2022-11-20T00:42:38;19.80;;;13.55;;
23745;SDS011;12053;48.878;9.632;2022-11-20T00:45:06;22.20;;;13.10;;
23745;SDS011;12053;48.878;9.632;2022-11-20T00:47:33;18.02;;;12.38;;
23745;SDS011;12053;48.878;9.632;2022-11-20T00:50:00;16.88;;;12.15;;
23745;SDS011;12053;48.878;9.632;2022-11-20T00:52:27;16.73;;;11.65;;
23745;SDS011;12053;48.878;9.632;2022-11-20T00:54:54;18.88;;;11.70;;
23745;SDS011;12053;48.878;9.632;2022-11-20T00:57:21;15.23;;;11.48;;
23745;SDS011;12053;48.878;9.632;2022-11-20T00:59:49;17.38;;;12.95;;
23745;SDS011;12053;48.878;9.632;2022-11-20T01:02:16;19.52;;;13.40;;
23745;SDS011;12053;48.878;9.632;2022-11-20T01:04:43;20.67;;;13.05;;
23745;SDS011;12053;48.878;9.632;2022-11-20T01:07:10;17.45;;;11.75;;
23745;SDS011;12053;48.878;9.632;2022-11-20T01:09:37;19.25;;;12.88;;
23745;SDS011;12053;48.878;9.632;2022-11-20T01:12:04;18.73;;;12.82;;
23745;SDS011;12053;48.878;9.632;2022-11-20T01:14:31;19.13;;;13.35;;
23745;SDS011;12053;48.878;9.632;2022-11-20T01:16:59;17.05;;;12.25;;
23745;SDS011;12053;48.878;9.632;2022-11-20T01:19:26;19.35;;;12.48;;
23745;SDS011;12053;48.878;9.632;2022-11-20T01:21:53;17.80;;;11.75;;
23745;SDS011;12053;48.878;9.632;2022-11-20T01:24:21;16.23;;;10.82;;
23745;SDS011;12053;48.878;9.632;2022-11-20T01:26:49;18.60;;;12.00;;
23745;SDS011;12053;48.878;9.632;2022-11-20T01:29:18;17.38;;;11.80;;
23745;SDS011;12053;48.878;9.632;2022-11-20T01:31:45;13.57;;;10.57;;
23745;SDS011;12053;48.878;9.632;2022-11-20T01:34:14;19.30;;;10.80;;
23745;SDS011;12053;48.878;9.632;2022-11-20T01:36:42;14.57;;;11.73;;
23745;SDS011;12053;48.878;9.632;2022-11-20T01:39:12;16.48;;;10.75;;
23745;SDS011;12053;48.878;9.632;2022-11-20T01:41:40;14.82;;;10.82;;
23745;SDS011;12053;48.878;9.632;2022-11-20T01:47:08;16.02;;;9.75;;
23745;SDS011;12053;48.878;9.632;2022-11-20T01:49:40;17.67;;;8.93;;
23745;SDS011;12053;48.878;9.632;2022-11-20T01:52:14;14.65;;;10.07;;
23745;SDS011;12053;48.878;9.632;2022-11-20T01:54:47;13.57;;;9.63;;
23745;SDS011;12053;48.878;9.632;2022-11-20T01:57:14;11.65;;;9.20;;
23745;SDS011;12053;48.878;9.632;2022-11-20T01:59:44;15.13;;;9.45;;
23745;SDS011;12053;48.878;9.632;2022-11-20T02:02:13;15.35;;;9.98;;
23745;SDS011;12053;48.878;9.632;2022-11-20T02:04:40;14.70;;;9.23;;
23745;SDS011;12053;48.878;9.632;2022-11-20T02:07:07;13.73;;;9.90;;
23745;SDS011;12053;48.878;9.632;2022-11-20T02:09:34;13.32;;;9.75;;
23745;SDS011;12053;48.878;9.632;2022-11-20T02:12:02;15.43;;;10.55;;
23745;SDS011;12053;48.878;9.632;2022-11-20T02:14:30;17.13;;;10.23;;
23745;SDS011;12053;48.878;9.632;2022-11-20T02:16:57;18.80;;;10.55;;
23745;SDS011;12053;48.878;9.632;2022-11-20T02:19:26;13.82;;;9.63;;
23745;SDS011;12053;48.878;9.632;2022-11-20T02:24:23;13.43;;;9.98;;
23745;SDS011;12053;48.878;9.632;2022-11-20T02:26:55;15.02;;;9.60;;
23745;SDS011;12053;48.878;9.632;2022-11-20T02:29:25;13.32;;;9.02;;
23745;SDS011;12053;48.878;9.632;2022-11-20T02:31:53;13.52;;;8.38;;
23745;SDS011;12053;48.878;9.632;2022-11-20T02:34:21;11.55;;;8.15;;
23745;SDS011;12053;48.878;9.632;2022-11-20T02:36:49;11.85;;;8.45;;
23745;SDS011;12053;48.878;9.632;2022-11-20T02:39:17;9.68;;;8.13;;
23745;SDS011;12053;48.878;9.632;2022-11-20T02:41:48;12.52;;;7.75;;
23745;SDS011;12053;48.878;9.632;2022-11-20T02:44:15;10.27;;;7.38;;
23745;SDS011;12053;48.878;9.632;2022-11-20T02:46:43;10.65;;;7.50;;
23745;SDS011;12053;48.878;9.632;2022-11-20T02:49:10;10.18;;;7.38;;
23745;SDS011;12053;48.878;9.632;2022-11-20T02:51:37;10.10;;;6.60;;
23745;SDS011;12053;48.878;9.632;2022-11-20T02:54:04;9.45;;;6.80;;
23745;SDS011;12053;48.878;9.632;2022-11-20T02:56:31;11.13;;;7.05;;
23745;SDS011;12053;48.878;9.632;2022-11-20T02:58:59;12.90;;;6.88;;
23745;SDS011;12053;48.878;9.632;2022-11-20T03:01:26;7.57;;;6.43;;
23745;SDS011;12053;48.878;9.632;2022-11-20T03:03:53;8.73;;;6.20;;
23745;SDS011;12053;48.878;9.632;2022-11-20T03:06:20;9.07;;;6.65;;
23745;SDS011;12053;48.878;9.632;2022-11-20T03:08:48;8.48;;;6.55;;
23745;SDS011;12053;48.878;9.632;2022-11-20T03:11:15;11.15;;;6.45;;
23745;SDS011;12053;48.878;9.632;2022-11-20T03:13:42;8.30;;;5.50;;
23745;SDS011;12053;48.878;9.632;2022-11-20T03:16:11;7.57;;;5.93;;
23745;SDS011;12053;48.878;9.632;2022-11-20T03:18:39;8.43;;;6.20;;
23745;SDS011;12053;48.878;9.632;2022-11-20T03:21:06;9.57;;;6.75;;
23745;SDS011;12053;48.878;9.632;2022-11-20T03:23:34;8.85;;;6.18;;
23745;SDS011;12053;48.878;9.632;2022-11-20T03:26:34;8.95;;;6.00;;
23745;SDS011;12053;48.878;9.632;2022-11-20T03:28:55;7.95;;;6.18;;
23745;SDS011;12053;48.878;9.632;2022-11-20T03:31:30;7.85;;;5.22;;
23745;SDS011;12053;48.878;9.632;2022-11-20T03:33:58;8.32;;;5.90;;
23745;SDS011;12053;48.878;9.632;2022-11-20T03:36:26;11.77;;;6.28;;
23745;SDS011;12053;48.878;9.632;2022-11-20T03:38:56;8.15;;;5.88;;
23745;SDS011;12053;48.878;9.632;2022-11-20T03:41:24;9.25;;;6.32;;
23745;SDS011;12053;48.878;9.632;2022-11-20T03:43:53;7.68;;;5.38;;
23745;SDS011;12053;48.878;9.632;2022-11-20T03:46:20;6.65;;;5.53;;
23745;SDS011;12053;48.878;9.632;2022-11-20T03:48:48;8.50;;;5.85;;
23745;SDS011;12053;48.878;9.632;2022-11-20T03:51:21;7.40;;;5.88;;
23745;SDS011;12053;48.878;9.632;2022-11-20T03:53:50;8.40;;;6.03;;
23745;SDS011;12053;48.878;9.632;2022-11-20T03:56:18;9.18;;;6.72;;
23745;SDS011;12053;48.878;9.632;2022-11-20T03:58:45;10.98;;;6.22;;
23745;SDS011;12053;48.878;9.632;2022-11-20T04:01:13;8.55;;;6.88;;
23745;SDS011;12053;48.878;9.632;2022-11-20T04:03:42;7.40;;;5.63;;
23745;SDS011;12053;48.878;9.632;2022-11-20T04:08:39;8.63;;;6.47;;
23745;SDS011;12053;48.878;9.632;2022-11-20T04:11:07;11.63;;;7.53;;
23745;SDS011;12053;48.878;9.632;2022-11-20T04:13:35;10.70;;;6.35;;
23745;SDS011;12053;48.878;9.632;2022-11-20T04:16:02;7.22;;;5.97;;
23745;SDS011;12053;48.878;9.632;2022-11-20T04:18:29;6.25;;;5.60;;
23745;SDS011;12053;48.878;9.632;2022-11-20T04:20:57;8.20;;;6.07;;
23745;SDS011;12053;48.878;9.632;2022-11-20T04:23:24;9.85;;;6.68;;
23745;SDS011;12053;48.878;9.632;2022-11-20T04:25:54;9.23;;;6.82;;
23745;SDS011;12053;48.878;9.632;2022-11-20T04:28:21;7.55;;;5.63;;
23745;SDS011;12053;48.878;9.632;2022-11-20T04:30:48;7.90;;;5.32;;
23745;SDS011;12053;48.878;9.632;2022-11-20T04:33:15;8.57;;;6.53;;
23745;SDS011;12053;48.878;9.632;2022-11-20T04:35:42;7.15;;;6.05;;
23745;SDS011;12053;48.878;9.632;2022-11-20T04:38:10;7.55;;;5.75;;
23745;SDS011;12053;48.878;9.632;2022-11-20T04:40:37;6.15;;;4.85;;
23745;SDS011;12053;48.878;9.632;2022-11-20T04:43:05;7.25;;;5.45;;
23745;SDS011;12053;48.878;9.632;2022-11-20T04:45:32;9.45;;;5.68;;
23745;SDS011;12053;48.878;9.632;2022-11-20T04:47:59;6.32;;;5.13;;
23745;SDS011;12053;48.878;9.632;2022-11-20T04:50:26;8.93;;;5.90;;
23745;SDS011;12053;48.878;9.632;2022-11-20T04:52:53;7.10;;;5.65;;
23745;SDS011;12053;48.878;9.632;2022-11-20T04:55:20;6.03;;;5.43;;
23745;SDS011;12053;48.878;9.632;2022-11-20T04:57:49;8.27;;;5.65;;
23745;SDS011;12053;48.878;9.632;2022-11-20T05:00:17;6.60;;;5.28;;
23745;SDS011;12053;48.878;9.632;2022-11-20T05:02:44;8.50;;;5.05;;
23745;SDS011;12053;48.878;9.632;2022-11-20T05:05:12;9.13;;;5.63;;
23745;SDS011;12053;48.878;9.632;2022-11-20T05:07:39;9.48;;;5.35;;
23745;SDS011;12053;48.878;9.632;2022-11-20T05:10:06;6.68;;;4.70;;
23745;SDS011;12053;48.878;9.632;2022-11-20T05:12:33;9.35;;;5.05;;
23745;SDS011;12053;48.878;9.632;2022-11-20T05:15:00;7.82;;;5.03;;
23745;SDS011;12053;48.878;9.632;2022-11-20T05:17:28;7.10;;;4.60;;
23745;SDS011;12053;48.878;9.632;2022-11-20T05:19:55;5.20;;;4.70;;
23745;SDS011;12053;48.878;9.632;2022-11-20T05:22:22;7.78;;;4.70;;
23745;SDS011;12053;48.878;9.632;2022-11-20T05:24:49;5.45;;;4.80;;
23745;SDS011;12053;48.878;9.632;2022-11-20T05:27:16;6.95;;;5.00;;
23745;SDS011;12053;48.878;9.632;2022-11-20T05:29:44;9.90;;;5.30;;
23745;SDS011;12053;48.878;9.632;2022-11-20T05:32:11;10.32;;;5.53;;
23745;SDS011;12053;48.878;9.632;2022-11-20T05:34:38;7.50;;;4.90;;
23745;SDS011;12053;48.878;9.632;2022-11-20T05:37:05;6.07;;;4.40;;
23745;SDS011;12053;48.878;9.632;2022-11-20T05:39:32;7.60;;;4.63;;
23745;SDS011;12053;48.878;9.632;2022-11-20T05:41:59;6.80;;;5.15;;
23745;SDS011;12053;48.878;9.632;2022-11-20T05:44:45;7.00;;;5.15;;
23745;SDS011;12053;48.878;9.632;2022-11-20T05:47:12;7.68;;;5.20;;
23745;SDS011;12053;48.878;9.632;2022-11-20T05:49:39;6.63;;;5.13;;
23745;SDS011;12053;48.878;9.632;2022-11-20T05:52:06;6.13;;;4.90;;
23745;SDS011;12053;48.878;9.632;2022-11-20T05:54:34;5.97;;;5.00;;
23745;SDS011;12053;48.878;9.632;2022-11-20T05:57:01;6.75;;;4.70;;
23745;SDS011;12053;48.878;9.632;2022-11-20T05:59:28;6.38;;;5.10;;
23745;SDS011;12053;48.878;9.632;2022-11-20T06:01:55;7.47;;;5.45;;
23745;SDS011;12053;48.878;9.632;2022-11-20T06:04:22;6.80;;;5.15;;
23745;SDS011;12053;48.878;9.632;2022-11-20T06:06:49;7.65;;;5.25;;
23745;SDS011;12053;48.878;9.632;2022-11-20T06:09:16;6.15;;;5.18;;
23745;SDS011;12053;48.878;9.632;2022-11-20T06:11:44;5.60;;;4.50;;
23745;SDS011;12053;48.878;9.632;2022-11-20T06:14:11;10.90;;;5.32;;
23745;SDS011;12053;48.878;9.632;2022-11-20T06:16:38;7.07;;;5.07;;
23745;SDS011;12053;48.878;9.632;2022-11-20T06:19:05;5.38;;;4.75;;
23745;SDS011;12053;48.878;9.632;2022-11-20T06:21:32;9.45;;;4.80;;
23745;SDS011;12053;48.878;9.632;2022-11-20T06:24:00;6.55;;;4.95;;
23745;SDS011;12053;48.878;9.632;2022-11-20T06:26:27;5.22;;;4.07;;
23745;SDS011;12053;48.878;9.632;2022-11-20T06:28:54;9.80;;;4.68;;
23745;SDS011;12053;48.878;9.632;2022-11-20T06:31:25;8.57;;;5.95;;
23745;SDS011;12053;48.878;9.632;2022-11-20T06:33:52;9.95;;;5.20;;
23745;SDS011;12053;48.878;9.632;2022-11-20T06:36:20;9.13;;;5.80;;
23745;SDS011;12053;48.878;9.632;2022-11-20T06:38:48;6.10;;;4.80;;
23745;SDS011;12053;48.878;9.632;2022-11-20T06:41:16;7.43;;;5.55;;
23745;SDS011;12053;48.878;9.632;2022-11-20T06:43:44;6.70;;;5.03;;
23745;SDS011;12053;48.878;9.632;2022-11-20T06:46:11;7.47;;;5.00;;
23745;SDS011;12053;48.878;9.632;2022-11-20T06:48:39;7.25;;;4.70;;
23745;SDS011;12053;48.878;9.632;2022-11-20T06:51:07;5.78;;;4.55;;
23745;SDS011;12053;48.878;9.632;2022-11-20T06:53:35;5.47;;;4.45;;
23745;SDS011;12053;48.878;9.632;2022-11-20T06:56:02;5.63;;;4.57;;
23745;SDS011;12053;48.878;9.632;2022-11-20T06:58:30;6.97;;;4.70;;
23745;SDS011;12053;48.878;9.632;2022-11-20T07:01:01;5.35;;;4.10;;
23745;SDS011;12053;48.878;9.632;2022-11-20T07:03:28;5.60;;;4.47;;
23745;SDS011;12053;48.878;9.632;2022-11-20T07:05:56;5.72;;;4.50;;
23745;SDS011;12053;48.878;9.632;2022-11-20T07:08:23;6.90;;;5.25;;
23745;SDS011;12053;48.878;9.632;2022-11-20T07:10:51;4.78;;;4.10;;
23745;SDS011;12053;48.878;9.632;2022-11-20T07:13:18;7.28;;;4.60;;
23745;SDS011;12053;48.878;9.632;2022-11-20T07:15:45;8.07;;;4.55;;
23745;SDS011;12053;48.878;9.632;2022-11-20T07:18:12;6.30;;;3.88;;
23745;SDS011;12053;48.878;9.632;2022-11-20T07:20:39;5.22;;;4.15;;
23745;SDS011;12053;48.878;9.632;2022-11-20T07:23:06;4.80;;;3.80;;
23745;SDS011;12053;48.878;9.632;2022-11-20T07:25:33;5.97;;;4.75;;
23745;SDS011;12053;48.878;9.632;2022-11-20T07:28:00;7.38;;;5.82;;
23745;SDS011;12053;48.878;9.632;2022-11-20T07:30:28;8.60;;;4.72;;
23745;SDS011;12053;48.878;9.632;2022-11-20T07:32:55;5.15;;;3.95;;
23745;SDS011;12053;48.878;9.632;2022-11-20T07:35:23;4.47;;;3.78;;
23745;SDS011;12053;48.878;9.632;2022-11-20T07:37:51;4.90;;;3.85;;
23745;SDS011;12053;48.878;9.632;2022-11-20T07:40:18;5.45;;;4.05;;
23745;SDS011;12053;48.878;9.632;2022-11-20T07:42:52;6.40;;;3.60;;
23745;SDS011;12053;48.878;9.632;2022-11-20T07:45:20;6.30;;;3.42;;
23745;SDS011;12053;48.878;9.632;2022-11-20T07:47:47;4.60;;;3.70;;
23745;SDS011;12053;48.878;9.632;2022-11-20T07:50:14;4.45;;;3.60;;
23745;SDS011;12053;48.878;9.632;2022-11-20T07:52:41;4.90;;;3.88;;
23745;SDS011;12053;48.878;9.632;2022-11-20T07:55:09;6.47;;;4.15;;
23745;SDS011;12053;48.878;9.632;2022-11-20T07:57:37;7.00;;;3.88;;
23745;SDS011;12053;48.878;9.632;2022-11-20T08:00:04;4.57;;;3.90;;
23745;SDS011;12053;48.878;9.632;2022-11-20T08:02:33;5.72;;;4.07;;
23745;SDS011;12053;48.878;9.632;2022-11-20T08:05:00;5.55;;;4.20;;
23745;SDS011;12053;48.878;9.632;2022-11-20T08:07:28;6.55;;;4.65;;
23745;SDS011;12053;48.878;9.632;2022-11-20T08:09:55;6.10;;;5.22;;
23745;SDS011;12053;48.878;9.632;2022-11-20T08:12:22;3.72;;;3.30;;
23745;SDS011;12053;48.878;9.632;2022-11-20T08:15:08;7.95;;;4.10;;
23745;SDS011;12053;48.878;9.632;2022-11-20T08:17:38;4.60;;;4.03;;
23745;SDS011;12053;48.878;9.632;2022-11-20T08:20:06;9.63;;;8.60;;
23745;SDS011;12053;48.878;9.632;2022-11-20T08:22:33;6.15;;;3.90;;
23745;SDS011;12053;48.878;9.632;2022-11-20T08:25:00;5.57;;;4.60;;
23745;SDS011;12053;48.878;9.632;2022-11-20T08:27:28;8.25;;;4.55;;
23745;SDS011;12053;48.878;9.632;2022-11-20T08:29:55;6.43;;;4.35;;
23745;SDS011;12053;48.878;9.632;2022-11-20T08:32:22;7.40;;;5.32;;
23745;SDS011;12053;48.878;9.632;2022-11-20T08:34:49;10.77;;;7.22;;
23745;SDS011;12053;48.878;9.632;2022-11-20T08:37:16;10.07;;;5.82;;
23745;SDS011;12053;48.878;9.632;2022-11-20T08:39:44;9.00;;;6.60;;
23745;SDS011;12053;48.878;9.632;2022-11-20T08:42:11;11.15;;;6.85;;
23745;SDS011;12053;48.878;9.632;2022-11-20T08:44:38;9.15;;;6.93;;
23745;SDS011;12053;48.878;9.632;2022-11-20T08:47:05;12.73;;;8.82;;
23745;SDS011;12053;48.878;9.632;2022-11-20T08:49:32;11.90;;;8.48;;
23745;SDS011;12053;48.878;9.632;2022-11-20T08:52:00;16.77;;;11.02;;
23745;SDS011;12053;48.878;9.632;2022-11-20T08:54:27;8.90;;;6.97;;
23745;SDS011;12053;48.878;9.632;2022-11-20T08:56:54;12.73;;;9.50;;
23745;SDS011;12053;48.878;9.632;2022-11-20T08:59:21;7.15;;;5.45;;
23745;SDS011;12053;48.878;9.632;2022-11-20T09:02:09;8.07;;;5.95;;
23745;SDS011;12053;48.878;9.632;2022-11-20T09:04:36;10.38;;;6.95;;
23745;SDS011;12053;48.878;9.632;2022-11-20T09:07:03;6.15;;;5.50;;
23745;SDS011;12053;48.878;9.632;2022-11-20T09:09:30;8.27;;;6.25;;
23745;SDS011;12053;48.878;9.632;2022-11-20T09:11:58;6.53;;;5.03;;
23745;SDS011;12053;48.878;9.632;2022-11-20T09:14:25;6.65;;;5.05;;
23745;SDS011;12053;48.878;9.632;2022-11-20T09:16:55;7.93;;;5.97;;
23745;SDS011;12053;48.878;9.632;2022-11-20T09:19:25;8.88;;;6.30;;
23745;SDS011;12053;48.878;9.632;2022-11-20T09:22:01;7.43;;;5.07;;
23745;SDS011;12053;48.878;9.632;2022-11-20T09:24:28;9.50;;;5.47;;
23745;SDS011;12053;48.878;9.632;2022-11-20T09:26:56;6.80;;;5.30;;
23745;SDS011;12053;48.878;9.632;2022-11-20T09:29:23;12.80;;;8.52;;
23745;SDS011;12053;48.878;9.632;2022-11-20T09:31:50;10.18;;;7.28;;
23745;SDS011;12053;48.878;9.632;2022-11-20T09:34:17;9.45;;;7.10;;
23745;SDS011;12053;48.878;9.632;2022-11-20T09:36:44;11.13;;;9.80;;
23745;SDS011;12053;48.878;9.632;2022-11-20T09:39:11;13.00;;;10.57;;
23745;SDS011;12053;48.878;9.632;2022-11-20T09:46:51;9.48;;;6.18;;
23745;SDS011;12053;48.878;9.632;2022-11-20T09:52:17;9.80;;;6.13;;
23745;SDS011;12053;48.878;9.632;2022-11-20T09:57:17;7.95;;;5.22;;
23745;SDS011;12053;48.878;9.632;2022-11-20T09:59:46;7.22;;;5.32;;
23745;SDS011;12053;48.878;9.632;2022-11-20T10:04:44;7.55;;;5.97;;
23745;SDS011;12053;48.878;9.632;2022-11-20T10:07:21;7.85;;;5.80;;
23745;SDS011;12053;48.878;9.632;2022-11-20T10:09:58;6.55;;;4.70;;
23745;SDS011;12053;48.878;9.632;2022-11-20T10:20:16;6.60;;;5.20;;
23745;SDS011;12053;48.878;9.632;2022-11-20T10:25:21;5.65;;;4.22;;
23745;SDS011;12053;48.878;9.632;2022-11-20T10:28:09;6.07;;;4.78;;
23745;SDS011;12053;48.878;9.632;2022-11-20T10:30:40;4.72;;;4.20;;
23745;SDS011;12053;48.878;9.632;2022-11-20T10:33:13;5.72;;;4.85;;
23745;SDS011;12053;48.878;9.632;2022-11-20T10:35:44;13.63;;;9.27;;
23745;SDS011;12053;48.878;9.632;2022-11-20T10:38:14;4.65;;;3.78;;
23745;SDS011;12053;48.878;9.632;2022-11-20T10:40:48;6.35;;;5.07;;
23745;SDS011;12053;48.878;9.632;2022-11-20T10:43:18;4.95;;;4.18;;
23745;SDS011;12053;48.878;9.632;2022-11-20T10:45:48;5.47;;;4.28;;
23745;SDS011;12053;48.878;9.632;2022-11-20T10:48:26;7.65;;;6.05;;
23745;SDS011;12053;48.878;9.632;2022-11-20T10:50:59;9.65;;;6.85;;
23745;SDS011;12053;48.878;9.632;2022-11-20T10:56:19;5.80;;;4.07;;
23745;SDS011;12053;48.878;9.632;2022-11-20T11:01:29;5.85;;;5.22;;
23745;SDS011;12053;48.878;9.632;2022-11-20T11:03:56;5.78;;;4.30;;
23745;SDS011;12053;48.878;9.632;2022-11-20T11:08:56;3.30;;;3.00;;
23745;SDS011;12053;48.878;9.632;2022-11-20T11:11:32;3.40;;;3.10;;
23745;SDS011;12053;48.878;9.632;2022-11-20T11:14:07;14.23;;;12.77;;
23745;SDS011;12053;48.878;9.632;2022-11-20T11:16:35;5.05;;;4.65;;
23745;SDS011;12053;48.878;9.632;2022-11-20T11:19:11;3.72;;;3.30;;
23745;SDS011;12053;48.878;9.632;2022-11-20T11:21:45;8.48;;;5.57;;
23745;SDS011;12053;48.878;9.632;2022-11-20T11:27:12;4.22;;;3.83;;
23745;SDS011;12053;48.878;9.632;2022-11-20T11:29:43;3.95;;;2.70;;
23745;SDS011;12053;48.878;9.632;2022-11-20T11:32:19;4.10;;;3.63;;
23745;SDS011;12053;48.878;9.632;2022-11-20T11:35:00;3.08;;;2.60;;
23745;SDS011;12053;48.878;9.632;2022-11-20T11:37:32;4.28;;;3.85;;
23745;SDS011;12053;48.878;9.632;2022-11-20T11:40:00;4.50;;;2.90;;
23745;SDS011;12053;48.878;9.632;2022-11-20T11:42:57;4.55;;;3.20;;
23745;SDS011;12053;48.878;9.632;2022-11-20T11:45:25;4.18;;;3.33;;
23745;SDS011;12053;48.878;9.632;2022-11-20T11:47:54;6.45;;;4.70;;
23745;SDS011;12053;48.878;9.632;2022-11-20T11:50:22;5.97;;;4.93;;
23745;SDS011;12053;48.878;9.632;2022-11-20T11:55:28;6.53;;;4.25;;
23745;SDS011;12053;48.878;9.632;2022-11-20T11:58:02;6.35;;;4.63;;
23745;SDS011;12053;48.878;9.632;2022-11-20T12:00:34;5.43;;;4.72;;
23745;SDS011;12053;48.878;9.632;2022-11-20T12:05:53;7.43;;;4.70;;
23745;SDS011;12053;48.878;9.632;2022-11-20T12:08:26;8.80;;;5.28;;
23745;SDS011;12053;48.878;9.632;2022-11-20T12:16:01;5.85;;;4.50;;
23745;SDS011;12053;48.878;9.632;2022-11-20T12:18:29;5.95;;;5.35;;
23745;SDS011;12053;48.878;9.632;2022-11-20T12:21:02;5.45;;;4.20;;
23745;SDS011;12053;48.878;9.632;2022-11-20T12:26:05;4.78;;;3.78;;
23745;SDS011;12053;48.878;9.632;2022-11-20T12:33:58;4.03;;;3.38;;
23745;SDS011;12053;48.878;9.632;2022-11-20T12:39:22;7.50;;;3.88;;
23745;SDS011;12053;48.878;9.632;2022-11-20T12:41:58;4.40;;;3.17;;
23745;SDS011;12053;48.878;9.632;2022-11-20T12:50:09;9.85;;;8.07;;
23745;SDS011;12053;48.878;9.632;2022-11-20T12:57:39;5.05;;;3.10;;
23745;SDS011;12053;48.878;9.632;2022-11-20T13:00:17;3.88;;;3.35;;
23745;SDS011;12053;48.878;9.632;2022-11-20T13:08:34;3.25;;;2.60;;
23745;SDS011;12053;48.878;9.632;2022-11-20T13:11:06;6.32;;;3.45;;
23745;SDS011;12053;48.878;9.632;2022-11-20T13:19:03;4.55;;;2.80;;
23745;SDS011;12053;48.878;9.632;2022-11-20T13:21:39;5.88;;;3.10;;
23745;SDS011;12053;48.878;9.632;2022-11-20T13:24:07;6.63;;;3.13;;
23745;SDS011;12053;48.878;9.632;2022-11-20T13:29:58;6.45;;;2.08;;
23745;SDS011;12053;48.878;9.632;2022-11-20T13:32:26;2.25;;;1.98;;
23745;SDS011;12053;48.878;9.632;2022-11-20T13:35:02;3.13;;;2.13;;
23745;SDS011;12053;48.878;9.632;2022-11-20T13:37:32;1.73;;;1.17;;
23745;SDS011;12053;48.878;9.632;2022-11-20T13:48:19;2.60;;;1.60;;
23745;SDS011;12053;48.878;9.632;2022-11-20T13:50:50;1.73;;;1.40;;
23745;SDS011;12053;48.878;9.632;2022-11-20T13:53:26;0.90;;;0.90;;
23745;SDS011;12053;48.878;9.632;2022-11-20T13:58:28;1.60;;;1.05;;
23745;SDS011;12053;48.878;9.632;2022-11-20T14:01:00;3.83;;;1.15;;
23745;SDS011;12053;48.878;9.632;2022-11-20T14:03:31;3.00;;;1.30;;
23745;SDS011;12053;48.878;9.632;2022-11-20T14:08:50;3.47;;;1.40;;
23745;SDS011;12053;48.878;9.632;2022-11-20T14:11:18;2.88;;;1.20;;
23745;SDS011;12053;48.878;9.632;2022-11-20T14:14:13;2.65;;;0.95;;
23745;SDS011;12053;48.878;9.632;2022-11-20T14:16:41;1.55;;;0.85;;
23745;SDS011;12053;48.878;9.632;2022-11-20T14:21:43;4.65;;;1.25;;
23745;SDS011;12053;48.878;9.632;2022-11-20T14:24:11;3.72;;;1.10;;
23745;SDS011;12053;48.878;9.632;2022-11-20T14:26:42;3.00;;;1.63;;
23745;SDS011;12053;48.878;9.632;2022-11-20T14:29:14;1.85;;;1.50;;
23745;SDS011;12053;48.878;9.632;2022-11-20T14:31:42;2.17;;;1.10;;
23745;SDS011;12053;48.878;9.632;2022-11-20T14:34:23;3.47;;;1.42;;
23745;SDS011;12053;48.878;9.632;2022-11-20T14:37:02;3.30;;;1.30;;
23745;SDS011;12053;48.878;9.632;2022-11-20T14:39:36;3.08;;;1.50;;
23745;SDS011;12053;48.878;9.632;2022-11-20T14:42:13;4.15;;;1.65;;
23745;SDS011;12053;48.878;9.632;2022-11-20T14:44:41;5.00;;;2.00;;
23745;SDS011;12053;48.878;9.632;2022-11-20T14:47:10;2.10;;;1.63;;
23745;SDS011;12053;48.878;9.632;2022-11-20T14:49:39;1.40;;;1.00;;
23745;SDS011;12053;48.878;9.632;2022-11-20T14:52:13;1.55;;;0.90;;
23745;SDS011;12053;48.878;9.632;2022-11-20T14:54:47;2.78;;;1.30;;
23745;SDS011;12053;48.878;9.632;2022-11-20T14:57:23;3.53;;;1.00;;
23745;SDS011;12053;48.878;9.632;2022-11-20T14:59:50;2.28;;;1.58;;
23745;SDS011;12053;48.878;9.632;2022-11-20T15:02:17;2.63;;;1.20;;
23745;SDS011;12053;48.878;9.632;2022-11-20T15:04:48;1.58;;;1.13;;
23745;SDS011;12053;48.878;9.632;2022-11-20T15:07:28;3.75;;;1.50;;
23745;SDS011;12053;48.878;9.632;2022-11-20T15:10:03;3.72;;;1.60;;
23745;SDS011;12053;48.878;9.632;2022-11-20T15:12:32;2.67;;;1.48;;
23745;SDS011;12053;48.878;9.632;2022-11-20T15:15:00;2.92;;;1.80;;
23745;SDS011;12053;48.878;9.632;2022-11-20T15:17:27;1.80;;;1.20;;
23745;SDS011;12053;48.878;9.632;2022-11-20T15:19:56;3.15;;;1.90;;
23745;SDS011;12053;48.878;9.632;2022-11-20T15:22:23;3.05;;;2.03;;
23745;SDS011;12053;48.878;9.632;2022-11-20T15:24:50;4.07;;;2.63;;
23745;SDS011;12053;48.878;9.632;2022-11-20T15:27:17;4.20;;;1.95;;
23745;SDS011;12053;48.878;9.632;2022-11-20T15:29:45;3.63;;;2.30;;
23745;SDS011;12053;48.878;9.632;2022-11-20T15:32:12;4.25;;;2.13;;
23745;SDS011;12053;48.878;9.632;2022-11-20T15:34:39;3.08;;;1.67;;
23745;SDS011;12053;48.878;9.632;2022-11-20T15:37:06;3.80;;;1.90;;
23745;SDS011;12053;48.878;9.632;2022-11-20T15:39:33;2.55;;;1.75;;
23745;SDS011;12053;48.878;9.632;2022-11-20T15:42:00;3.88;;;1.88;;
23745;SDS011;12053;48.878;9.632;2022-11-20T15:44:28;2.95;;;1.63;;
23745;SDS011;12053;48.878;9.632;2022-11-20T15:46:55;6.20;;;3.55;;
23745;SDS011;12053;48.878;9.632;2022-11-20T15:49:22;6.40;;;3.13;;
23745;SDS011;12053;48.878;9.632;2022-11-20T15:51:49;9.05;;;5.47;;
23745;SDS011;12053;48.878;9.632;2022-11-20T15:54:19;9.00;;;4.25;;
23745;SDS011;12053;48.878;9.632;2022-11-20T15:56:49;19.52;;;11.10;;
23745;SDS011;12053;48.878;9.632;2022-11-20T15:59:18;12.13;;;8.40;;
23745;SDS011;12053;48.878;9.632;2022-11-20T16:01:46;6.57;;;3.20;;
23745;SDS011;12053;48.878;9.632;2022-11-20T16:04:14;5.50;;;3.80;;
23745;SDS011;12053;48.878;9.632;2022-11-20T16:06:42;5.03;;;4.10;;
23745;SDS011;12053;48.878;9.632;2022-11-20T16:09:09;3.53;;;2.80;;
23745;SDS011;12053;48.878;9.632;2022-11-20T16:11:36;3.53;;;2.05;;
23745;SDS011;12053;48.878;9.632;2022-11-20T16:14:04;8.88;;;5.15;;
23745;SDS011;12053;48.878;9.632;2022-11-20T16:16:50;13.23;;;6.95;;
23745;SDS011;12053;48.878;9.632;2022-11-20T16:19:18;6.03;;;3.30;;
23745;SDS011;12053;48.878;9.632;2022-11-20T16:21:45;4.70;;;3.65;;
23745;SDS011;12053;48.878;9.632;2022-11-20T16:24:13;6.45;;;3.75;;
23745;SDS011;12053;48.878;9.632;2022-11-20T16:26:40;11.18;;;6.35;;
23745;SDS011;12053;48.878;9.632;2022-11-20T16:29:08;19.42;;;11.45;;
23745;SDS011;12053;48.878;9.632;2022-11-20T16:31:36;29.58;;;17.00;;
23745;SDS011;12053;48.878;9.632;2022-11-20T16:34:04;16.95;;;10.13;;
23745;SDS011;12053;48.878;9.632;2022-11-20T16:36:41;43.22;;;23.52;;
23745;SDS011;12053;48.878;9.632;2022-11-20T16:39:09;45.85;;;26.27;;